Suula — OJKZ — position and weather

sailwx.info

Track history (hours):
 
Tides and Currents Weather Stations Pressure Air Temp Water Temp Dewpoint Dewpoint Depression Visibility Wind Speed Wind Dir Waves Ship Positions

Suula

Last reported at 2015-Mar-29 08:16 UTC. Time now 2015-Mar-29 10:42 UTC.
Position N 59°38' E 023°14'.

Length 140 m; draft 6.5 m.

Type: Tanker. MMSI: 230956996.

Date/timePositionNaut miles runAvg speedWind from/ knotsBaromVisibWave heightAir tempDewpointWater temp
2015-Mar-29 08:16N 59°38' E 023°14'1014.7
2015-Mar-29 07:33N 59°41' E 023°34'1614.8
2015-Mar-29 06:28N 59°45' E 024°04'1814.9
2015-Mar-29 05:16N 59°49' E 024°39'35 1.4
2015-Mar-28 04:30N 60°10' E 025°36'3511.3
2015-Mar-28 01:26N 59°46' E 024°45'1213.6
2015-Mar-28 00:33N 59°44' E 024°21'2914.1
2015-Mar-27 22:29N 59°35' E 023°27'5613.0
2015-Mar-27 18:10N 59°29' E 021°36'813.5
2015-Mar-27 17:33N 59°31' E 021°21'  
2015-Mar-24 17:33N 59°32' E 021°20'1613.9
2015-Mar-24 16:24N 59°31' E 021°52'4213.7
2015-Mar-24 13:20N 59°38' E 023°14'1013.5
2015-Mar-24 12:33N 59°41' E 023°34'1413.6
2015-Mar-24 11:32N 59°44' E 024°00'24 1.5
2015-Mar-23 19:26N 59°46' E 024°47'1315.1
2015-Mar-23 18:33N 59°43' E 024°22'1615.1
2015-Mar-23 17:29N 59°38' E 023°51'1415.0
2015-Mar-23 16:33N 59°34' E 023°25'5714.2
2015-Mar-23 12:33N 59°32' E 021°33'1312.9
2015-Mar-23 11:34N 59°43' E 021°20'9 8.7
2015-Mar-23 10:33N 59°52' E 021°26'  
Track history (hours):
 
Tides and Currents Weather Stations Pressure Air Temp Water Temp Dewpoint Dewpoint Depression Visibility Wind Speed Wind Dir Waves Ship Positions

Suula

Last reported at 2015-Mar-29 08:16 UTC. Time now 2015-Mar-29 10:42 UTC.
Position N 59°38' E 023°14'.

Length 140 m; draft 6.5 m.

Type: Tanker. MMSI: 230956996.

Date/timePositionNaut miles runAvg speedWind from/ knotsBaromVisibWave heightAir tempDewpointWater temp
2015-Mar-29 08:16N 59°38' E 023°14'1014.7
2015-Mar-29 07:33N 59°41' E 023°34'1614.8
2015-Mar-29 06:28N 59°45' E 024°04'1814.9
2015-Mar-29 05:16N 59°49' E 024°39'35 1.4
2015-Mar-28 04:30N 60°10' E 025°36'3511.3
2015-Mar-28 01:26N 59°46' E 024°45'1213.6
2015-Mar-28 00:33N 59°44' E 024°21'2914.1
2015-Mar-27 22:29N 59°35' E 023°27'5613.0
2015-Mar-27 18:10N 59°29' E 021°36'813.5
2015-Mar-27 17:33N 59°31' E 021°21'  
2015-Mar-24 17:33N 59°32' E 021°20'1613.9
2015-Mar-24 16:24N 59°31' E 021°52'4213.7
2015-Mar-24 13:20N 59°38' E 023°14'1013.5
2015-Mar-24 12:33N 59°41' E 023°34'1413.6
2015-Mar-24 11:32N 59°44' E 024°00'24 1.5
2015-Mar-23 19:26N 59°46' E 024°47'1315.1
2015-Mar-23 18:33N 59°43' E 024°22'1615.1
2015-Mar-23 17:29N 59°38' E 023°51'1415.0
2015-Mar-23 16:33N 59°34' E 023°25'5714.2
2015-Mar-23 12:33N 59°32' E 021°33'1312.9
2015-Mar-23 11:34N 59°43' E 021°20'9 8.7
2015-Mar-23 10:33N 59°52' E 021°26'  

Dump ship's entire track history